Terminal Aerodrome Forecast
Issued by NWS Corpus Christi, TX

Home | Current Version | Previous Version | Text Only | Print | Product List | Glossary On
Versions: 1 2 3 4 5 6 7 8 9 10 11 12 13 14 15 16
965
FTUS44 KCRP 270533
TAFVCT
TAF
KVCT 270533Z 2706/2806 16010KT P6SM OVC014
     FM270800 17008KT 5SM BR OVC008
     FM271500 17015G22KT P6SM SCT018 BKN250
      TEMPO 2715/2717 BKN018
     FM271900 16018G25KT P6SM SCT035 SCT250
     FM280200 15012KT P6SM OVC015=

USA.gov is the U.S. government's official web portal to all federal, state and local government web resources and services.